»·PEaware :: N515PM KLAX-KSNA

N515PM :: KLAX-KSNA

FLIGHT INFORMATION

Flight Status: Arrived
Operator: Privately registered:
United States
More flights under this callsign
Pilot: Jim H. (33905)
Aircraft: CESSNA 182 SKYLANE
(C182)
More flights by this aircraft type
Origin: KLAX Los Angeles Intl
United States
Destination: KSNA John Wayne-Orange Co
United States
More flights between these airports :: More routes between these airports
Route: SLI8 SLI
File this flight plan on PilotEdge
Remarks: I-6 practice
Altitude:
(Current/Filed)
4,000ft
Speed:
(Current/Filed)
140kts
Departed: 28-Mar-21 09:46 AM
Arrived: 28-Mar-21 10:23 AM
Distance/Time
Traveled:
31nm/0:36
Distance/Time
To Go:
Arrived

Flight Plot

Page will automatically refresh every two minutes.

Flight plan parsing failed; only flown route is shown


Map Options




Map Legend


Flown Route
Filed Route
Departure Airport
Arrival Airport
Navaid (VOR, NDB)
Fix

Horizontal Profiles

Position Reports

Time Latitude Longitude Heading Altitude Ground
Speed
28-Mar-21 09:21 33.933814 -118.399128 22 111ft 0kts
28-Mar-21 09:22 33.933815 -118.399127 22 120ft 0kts
28-Mar-21 09:23 33.933815 -118.399127 22 120ft 0kts
28-Mar-21 09:24 33.933815 -118.399127 22 120ft 0kts
28-Mar-21 09:25 33.933815 -118.399127 22 120ft 0kts
28-Mar-21 09:26 33.933815 -118.399127 22 120ft 0kts
28-Mar-21 09:27 33.933815 -118.399127 22 120ft 0kts
28-Mar-21 09:28 33.933815 -118.399127 22 120ft 0kts
28-Mar-21 09:29 33.933815 -118.399127 22 120ft 0kts
28-Mar-21 09:30 33.933815 -118.399127 22 120ft 0kts
28-Mar-21 09:31 33.933815 -118.399127 22 120ft 0kts
28-Mar-21 09:32 33.933815 -118.399127 22 120ft 0kts
28-Mar-21 09:33 33.933815 -118.399127 22 120ft 0kts
28-Mar-21 09:34 33.933815 -118.399127 22 120ft 0kts
28-Mar-21 09:35 33.933815 -118.399127 22 120ft 0kts
28-Mar-21 09:36 33.933815 -118.399127 22 120ft 0kts
28-Mar-21 09:37 33.933815 -118.399127 22 120ft 0kts
28-Mar-21 09:38 33.933815 -118.399127 22 120ft 0kts
28-Mar-21 09:39 33.934884 -118.394946 84 120ft 30kts
28-Mar-21 09:40 33.936639 -118.382817 1 120ft 26kts
28-Mar-21 09:41 33.938528 -118.383060 353 120ft 0kts
28-Mar-21 09:42 33.938528 -118.383060 353 120ft 0kts
28-Mar-21 09:43 33.938528 -118.383060 353 120ft 0kts
28-Mar-21 09:44 33.938528 -118.383060 353 120ft 0kts
28-Mar-21 09:45 33.938946 -118.388788 261 133ft 86kts
28-Mar-21 09:46 33.935840 -118.425853 264 1151ft 123kts
28-Mar-21 09:47 33.918858 -118.459903 215 1932ft 131kts
28-Mar-21 09:48 33.885670 -118.454977 144 2719ft 143kts
28-Mar-21 09:49 33.855699 -118.424469 143 3519ft 140kts
28-Mar-21 09:50 33.825494 -118.393187 143 3959ft 150kts
28-Mar-21 09:51 33.793274 -118.359995 142 3987ft 153kts
28-Mar-21 09:52 33.762661 -118.328144 143 3993ft 142kts
28-Mar-21 09:53 33.732912 -118.297081 142 4003ft 143kts
28-Mar-21 09:54 33.702730 -118.265813 142 3988ft 142kts
28-Mar-21 09:55 33.672906 -118.234722 142 3991ft 138kts
28-Mar-21 09:56 33.644585 -118.204779 135 3992ft 136kts
28-Mar-21 09:57 33.644069 -118.158770 83 3990ft 139kts
28-Mar-21 09:58 33.667316 -118.130997 23 3995ft 133kts
28-Mar-21 09:59 33.699955 -118.110219 26 3992ft 134kts
28-Mar-21 10:00 33.732426 -118.088653 24 3994ft 133kts
28-Mar-21 10:01 33.765530 -118.066607 24 3991ft 138kts
28-Mar-21 10:02 33.791766 -118.035465 64 3996ft 140kts
28-Mar-21 10:03 33.808354 -117.993389 61 3996ft 139kts
28-Mar-21 10:04 33.825674 -117.950466 61 3998ft 145kts
28-Mar-21 10:05 33.843300 -117.907006 61 3988ft 144kts
28-Mar-21 10:06 33.860921 -117.863519 61 3990ft 145kts
28-Mar-21 10:07 33.878587 -117.819874 61 3997ft 146kts
28-Mar-21 10:08 33.896490 -117.775716 62 4007ft 148kts
28-Mar-21 10:09 33.914613 -117.731092 61 3973ft 145kts
28-Mar-21 10:10 33.941410 -117.698395 32 3997ft 142kts
28-Mar-21 10:11 33.975368 -117.676791 337 3991ft 132kts
28-Mar-21 10:12 33.959545 -117.694266 197 3993ft 133kts
28-Mar-21 10:13 33.925425 -117.710121 213 3989ft 129kts
28-Mar-21 10:14 33.893611 -117.730587 211 4000ft 130kts
28-Mar-21 10:15 33.861477 -117.751045 212 3986ft 131kts
28-Mar-21 10:16 33.826931 -117.772974 211 3250ft 139kts
28-Mar-21 10:17 33.793220 -117.794357 213 2480ft 136kts
28-Mar-21 10:18 33.759665 -117.815601 213 1779ft 136kts
28-Mar-21 10:19 33.726686 -117.836488 212 1065ft 123kts
28-Mar-21 10:20 33.700011 -117.852706 212 505ft 92kts
28-Mar-21 10:21 33.680527 -117.865757 210 44ft 60kts
28-Mar-21 10:22 33.678141 -117.868447 301 50ft 0kts
28-Mar-21 10:23 33.676476 -117.870663 232 52ft 0kts

Navigation Log

Ident Type
Flight plan parsing failed, navigation log unavailable